Orange, New Hampshire
Current Conditions -  °F | °C
As of 12:53 AM on Saturday 20 Dec 2014 (Local Time) from KLEB Reporting Station
Overcast Overcast  
Wind Chill: 16°   Ceiling: 1500
Heat Index: 23°   Visibility: 10mi
Dew Point: 16°   Wind: 6mph
Humidity: 74%   Direction: 330°NNW
Pressure: 30.2"   Gusts: NA
Location:  43.6625°N, 72.0033°W
Report Text: KLEB 200553Z AUTO 33005KT 10SM OVC015 M05/M09 A3020 RMK AO2 SLP237 T10501089 11033 21050 51015
Loading
Personal Weather Stations






























Interactive Weather Map New forecast layout! Learn more

10-Day Weather Forecast

Advertisements
Track Severe Weather on mobile